Time;durP1;ratioP1;P1;durP2;ratioP2;P2;SDS_P1;SDS_P2;PMS_P1;PMS_P2;Temp;Humidity;BMP_temperature;BMP_pressure;BME280_temperature;BME280_humidity;BME280_pressure;Samples;Min_cycle;Max_cycle;Signal;HPM_P1;HPM_P2
2023/05/17 00:02:36;;;;;;;0.10;0.10;;;;;;;;;;4934700;28;20047;-77
2023/05/17 00:05:22;;;;;;;0.10;0.10;;;;;;;;;;4937516;28;20035;-76
2023/05/17 00:08:08;;;;;;;0.10;0.10;;;;;;;;;;4936535;28;20371;-76
2023/05/17 00:10:53;;;;;;;0.10;0.10;;;;;;;;;;4938695;28;20129;-77
2023/05/17 00:13:40;;;;;;;0.10;0.10;;;;;;;;;;4938908;28;20071;-77
2023/05/17 00:16:25;;;;;;;0.10;0.10;;;;;;;;;;4937196;28;20554;-76
2023/05/17 00:19:11;;;;;;;0.10;0.10;;;;;;;;;;4938598;28;20073;-76
2023/05/17 00:21:57;;;;;;;0.10;0.10;;;;;;;;;;4937278;28;20303;-76
2023/05/17 00:24:42;;;;;;;0.10;0.10;;;;;;;;;;4934795;28;21327;-76
2023/05/17 00:27:28;;;;;;;0.10;0.10;;;;;;;;;;4938192;28;20148;-76
2023/05/17 00:30:14;;;;;;;0.10;0.10;;;;;;;;;;4935959;28;20070;-77
2023/05/17 00:33:00;;;;;;;0.10;0.10;;;;;;;;;;4922915;28;20042;-77
2023/05/17 00:35:46;;;;;;;0.10;0.10;;;;;;;;;;4937648;28;20035;-76
2023/05/17 00:38:31;;;;;;;0.10;0.10;;;;;;;;;;4921962;28;20035;-77
2023/05/17 00:41:17;;;;;;;0.10;0.10;;;;;;;;;;4937942;28;20050;-76
2023/05/17 00:44:03;;;;;;;0.10;0.10;;;;;;;;;;4938667;28;20062;-76
2023/05/17 00:46:49;;;;;;;0.20;0.20;;;;;;;;;;4923048;28;20035;-76
2023/05/17 00:49:35;;;;;;;0.10;0.10;;;;;;;;;;4919687;28;20129;-77
2023/05/17 00:52:20;;;;;;;0.10;0.10;;;;;;;;;;4922808;28;20336;-76
2023/05/17 00:55:06;;;;;;;0.10;0.10;;;;;;;;;;4936514;28;20620;-77
2023/05/17 00:57:52;;;;;;;0.10;0.10;;;;;;;;;;4938146;28;20796;-76
2023/05/17 01:00:38;;;;;;;0.10;0.10;;;;;;;;;;4937671;28;20477;-77
2023/05/17 01:03:24;;;;;;;0.10;0.10;;;;;;;;;;4923062;28;20031;-77
2023/05/17 01:06:10;;;;;;;0.10;0.10;;;;;;;;;;4936690;28;20039;-77
2023/05/17 01:08:55;;;;;;;0.10;0.10;;;;;;;;;;4936825;28;20523;-76
2023/05/17 01:11:47;;;;;;;0.10;0.10;;;;;;;;;;4922557;28;20093;-76
2023/05/17 01:14:33;;;;;;;;;;;;;;;;;;4938343;28;20110;-77
2023/05/17 01:17:24;;;;;;;0.10;0.10;;;;;;;;;;4940331;28;19921;-77
2023/05/17 01:20:27;;;;;;;0.20;0.20;;;;;;;;;;4942098;28;20133;-76
2023/05/17 01:23:12;;;;;;;0.10;0.10;;;;;;;;;;4937938;28;20042;-76
2023/05/17 01:26:21;;;;;;;0.10;0.10;;;;;;;;;;4925277;28;20046;-76
2023/05/17 01:29:08;;;;;;;0.10;0.10;;;;;;;;;;4953292;28;20502;-77
2023/05/17 01:31:55;;;;;;;0.10;0.10;;;;;;;;;;4958822;28;20479;-76
2023/05/17 01:34:42;;;;;;;0.10;0.10;;;;;;;;;;4942885;28;20110;-77
2023/05/17 01:37:28;;;;;;;0.10;0.10;;;;;;;;;;4960015;28;20594;-76
2023/05/17 01:40:14;;;;;;;0.10;0.10;;;;;;;;;;4960212;28;20566;-76
2023/05/17 01:43:15;;;;;;;0.10;0.10;;;;;;;;;;4958222;28;20042;-76
2023/05/17 01:46:02;;;;;;;0.10;0.10;;;;;;;;;;4942439;28;20434;-76
2023/05/17 01:48:55;;;;;;;0.10;0.10;;;;;;;;;;4942878;28;20043;-77
2023/05/17 01:51:44;;;;;;;0.10;0.10;;;;;;;;;;4956394;28;20563;-77
2023/05/17 01:54:45;;;;;;;0.10;0.10;;;;;;;;;;4944668;28;20114;-76
2023/05/17 01:57:34;;;;;;;0.13;0.13;;;;;;;;;;4958110;28;20038;-77
2023/05/17 02:00:21;;;;;;;0.10;0.10;;;;;;;;;;4944227;28;20049;-76
2023/05/17 02:03:10;;;;;;;0.10;0.10;;;;;;;;;;4958685;28;20046;-76
2023/05/17 02:05:56;;;;;;;0.10;0.10;;;;;;;;;;4960343;28;20049;-76
2023/05/17 02:08:42;;;;;;;0.10;0.10;;;;;;;;;;4958575;28;20069;-76
2023/05/17 02:11:28;;;;;;;0.10;0.10;;;;;;;;;;4946493;28;20126;-76
2023/05/17 02:14:13;;;;;;;0.10;0.10;;;;;;;;;;4957161;28;20035;-76
2023/05/17 02:17:00;;;;;;;0.10;0.10;;;;;;;;;;4958228;28;20388;-76
2023/05/17 02:19:46;;;;;;;0.10;0.10;;;;;;;;;;4956865;28;20053;-76
2023/05/17 02:22:31;;;;;;;0.10;0.10;;;;;;;;;;4958227;28;20179;-76
2023/05/17 02:25:17;;;;;;;0.10;0.10;;;;;;;;;;4943987;28;20088;-77
2023/05/17 02:28:03;;;;;;;0.10;0.10;;;;;;;;;;4957938;28;20135;-75
2023/05/17 02:30:49;;;;;;;0.10;0.10;;;;;;;;;;4943307;28;20081;-76
2023/05/17 02:33:36;;;;;;;0.10;0.10;;;;;;;;;;4959505;28;20031;-76
2023/05/17 02:36:21;;;;;;;0.10;0.10;;;;;;;;;;4958598;28;20026;-75
2023/05/17 02:39:07;;;;;;;0.10;0.10;;;;;;;;;;4957209;28;20148;-76
2023/05/17 02:41:53;;;;;;;0.10;0.10;;;;;;;;;;4957080;28;20487;-75
2023/05/17 02:44:38;;;;;;;0.10;0.10;;;;;;;;;;4944540;28;20039;-76
2023/05/17 02:47:24;;;;;;;0.10;0.10;;;;;;;;;;4958664;28;20031;-76
2023/05/17 02:50:10;;;;;;;0.10;0.10;;;;;;;;;;4959232;28;20246;-76
2023/05/17 02:52:56;;;;;;;0.10;0.10;;;;;;;;;;4943695;28;20085;-77
2023/05/17 02:55:42;;;;;;;0.10;0.10;;;;;;;;;;4940424;28;20065;-76
2023/05/17 02:58:27;;;;;;;0.10;0.10;;;;;;;;;;4943611;28;20375;-77
2023/05/17 03:01:13;;;;;;;0.10;0.10;;;;;;;;;;4944079;28;20047;-77
2023/05/17 03:03:59;;;;;;;0.15;0.15;;;;;;;;;;4955368;28;20050;-77
2023/05/17 03:06:45;;;;;;;0.10;0.10;;;;;;;;;;4943117;28;20041;-77
2023/05/17 03:09:31;;;;;;;0.10;0.10;;;;;;;;;;4941036;28;20066;-78
2023/05/17 03:12:17;;;;;;;0.10;0.10;;;;;;;;;;4958474;28;20518;-76
2023/05/17 03:15:03;;;;;;;0.17;0.17;;;;;;;;;;4943233;28;20424;-76
2023/05/17 03:17:49;;;;;;;0.10;0.10;;;;;;;;;;4942740;28;20077;-76
2023/05/17 03:20:36;;;;;;;0.10;0.10;;;;;;;;;;4958241;28;20061;-76
2023/05/17 03:23:22;;;;;;;0.10;0.10;;;;;;;;;;4955520;28;20550;-76
2023/05/17 03:26:17;;;;;;;0.20;0.20;;;;;;;;;;4956154;28;20346;-76
2023/05/17 03:29:07;;;;;;;0.10;0.10;;;;;;;;;;4931781;28;20611;-77
2023/05/17 03:31:53;;;;;;;0.10;0.10;;;;;;;;;;4936020;28;20326;-76
2023/05/17 03:34:41;;;;;;;0.10;0.10;;;;;;;;;;4938261;28;20039;-76
2023/05/17 03:37:27;;;;;;;0.10;0.10;;;;;;;;;;4935878;28;20124;-76
2023/05/17 03:40:13;;;;;;;0.10;0.10;;;;;;;;;;4936236;28;20058;-77
2023/05/17 03:42:59;;;;;;;0.13;0.13;;;;;;;;;;4920286;28;20032;-77
2023/05/17 03:45:46;;;;;;;0.10;0.10;;;;;;;;;;4936569;28;20035;-77
2023/05/17 03:48:32;;;;;;;0.10;0.10;;;;;;;;;;4920847;28;20117;-77
2023/05/17 03:51:18;;;;;;;0.10;0.10;;;;;;;;;;4925199;28;20035;-76
2023/05/17 03:54:04;;;;;;;0.10;0.10;;;;;;;;;;4936988;28;20153;-77
2023/05/17 03:56:49;;;;;;;0.10;0.10;;;;;;;;;;4920597;28;20376;-77
2023/05/17 04:56:45;;;;;;;0.10;0.10;;;;;;;;;;6123617;22;1973112;-76
2023/05/17 04:59:37;;;;;;;0.10;0.10;;;;;;;;;;6152410;23;20017;-76
2023/05/17 05:02:24;;;;;;;0.10;0.10;;;;;;;;;;6095188;23;20014;-75
2023/05/17 05:05:10;;;;;;;0.10;0.10;;;;;;;;;;6116252;23;20010;-76
2023/05/17 05:07:57;;;;;;;0.10;0.10;;;;;;;;;;6134228;23;20021;-76
2023/05/17 05:10:43;;;;;;;0.10;0.10;;;;;;;;;;6127477;23;20014;-75
2023/05/17 05:13:30;;;;;;;0.10;0.10;;;;;;;;;;6108094;23;20021;-76
2023/05/17 05:16:16;;;;;;;0.10;0.10;;;;;;;;;;6108810;23;20018;-75
2023/05/17 05:19:03;;;;;;;0.10;0.10;;;;;;;;;;6106290;23;20021;-75
2023/05/17 05:21:50;;;;;;;0.17;0.17;;;;;;;;;;6109404;23;20018;-75
2023/05/17 05:24:36;;;;;;;0.20;0.20;;;;;;;;;;6107499;23;20315;-75
2023/05/17 05:27:21;;;;;;;0.10;0.10;;;;;;;;;;6106608;23;20018;-76
2023/05/17 05:30:08;;;;;;;0.10;0.10;;;;;;;;;;6106018;23;20021;-77
2023/05/17 05:32:54;;;;;;;0.10;0.10;;;;;;;;;;6106283;23;20068;-76
2023/05/17 05:35:40;;;;;;;0.10;0.10;;;;;;;;;;6109825;23;20076;-76
2023/05/17 05:38:26;;;;;;;0.20;0.20;;;;;;;;;;6109245;23;20021;-76
2023/05/17 05:41:12;;;;;;;0.10;0.10;;;;;;;;;;6108881;23;20017;-76
2023/05/17 05:43:59;;;;;;;0.10;0.10;;;;;;;;;;6109452;23;20016;-76
2023/05/17 05:46:45;;;;;;;0.10;0.10;;;;;;;;;;6106337;23;20022;-77
2023/05/17 05:49:32;;;;;;;0.20;0.20;;;;;;;;;;6108941;23;20353;-77
2023/05/17 05:52:18;;;;;;;0.10;0.10;;;;;;;;;;6108194;23;20022;-77
2023/05/17 05:55:04;;;;;;;0.20;0.20;;;;;;;;;;6108963;23;20013;-77
2023/05/17 05:57:50;;;;;;;0.10;0.10;;;;;;;;;;6109125;23;20029;-77
2023/05/17 06:00:36;;;;;;;0.20;0.20;;;;;;;;;;6107004;23;20018;-77
2023/05/17 06:03:22;;;;;;;0.10;0.10;;;;;;;;;;6108501;23;20017;-77
2023/05/17 06:06:07;;;;;;;0.10;0.10;;;;;;;;;;6104949;23;20108;-76
2023/05/17 06:08:53;;;;;;;0.10;0.10;;;;;;;;;;6106204;23;20032;-76
2023/05/17 06:11:39;;;;;;;0.10;0.10;;;;;;;;;;6105757;23;20069;-76
2023/05/17 06:14:25;;;;;;;0.10;0.10;;;;;;;;;;6107605;23;20154;-76
2023/05/17 06:17:10;;;;;;;0.20;0.20;;;;;;;;;;6108612;23;20100;-76
2023/05/17 06:19:56;;;;;;;0.10;0.10;;;;;;;;;;6107642;23;20037;-77
2023/05/17 06:22:42;;;;;;;0.10;0.10;;;;;;;;;;6107684;23;20491;-76
2023/05/17 06:25:28;;;;;;;0.20;0.20;;;;;;;;;;6104174;23;20102;-76
2023/05/17 06:28:14;;;;;;;0.10;0.10;;;;;;;;;;6104338;23;20045;-76
2023/05/17 06:31:00;;;;;;;0.10;0.10;;;;;;;;;;6103873;23;20022;-76
2023/05/17 06:33:45;;;;;;;0.20;0.20;;;;;;;;;;6104090;23;20018;-77
2023/05/17 06:36:31;;;;;;;0.10;0.10;;;;;;;;;;6103624;23;20262;-77
2023/05/17 06:39:17;;;;;;;0.10;0.10;;;;;;;;;;6103595;23;20121;-76
2023/05/17 06:42:06;;;;;;;0.20;0.20;;;;;;;;;;6104908;23;20596;-77
2023/05/17 06:44:55;;;;;;;0.10;0.10;;;;;;;;;;6105894;23;20108;-76
2023/05/17 06:47:40;;;;;;;0.15;0.15;;;;;;;;;;6104621;23;20042;-76
2023/05/17 06:50:27;;;;;;;0.13;0.13;;;;;;;;;;6106086;23;20017;-76
2023/05/17 06:53:12;;;;;;;0.10;0.10;;;;;;;;;;6105390;23;20454;-76
2023/05/17 06:55:58;;;;;;;0.10;0.10;;;;;;;;;;6107098;23;20045;-77
2023/05/17 06:58:44;;;;;;;0.10;0.10;;;;;;;;;;6132419;23;20491;-76
2023/05/17 07:01:30;;;;;;;0.10;0.10;;;;;;;;;;6132827;23;20076;-76
2023/05/17 07:04:16;;;;;;;0.10;0.10;;;;;;;;;;6111623;23;20043;-76
2023/05/17 07:07:01;;;;;;;0.10;0.10;;;;;;;;;;6132629;23;20013;-76
2023/05/17 07:09:47;;;;;;;0.20;0.20;;;;;;;;;;6132319;23;20138;-77
2023/05/17 07:12:33;;;;;;;0.20;0.20;;;;;;;;;;6133959;23;20017;-77
2023/05/17 07:15:18;;;;;;;0.20;0.20;;;;;;;;;;6134047;23;20020;-76
2023/05/17 07:18:04;;;;;;;0.10;0.10;;;;;;;;;;6134592;23;20367;-76
2023/05/17 07:20:50;;;;;;;0.13;0.13;;;;;;;;;;6133966;23;20382;-76
2023/05/17 07:23:36;;;;;;;0.10;0.10;;;;;;;;;;6132795;23;20021;-76
2023/05/17 07:26:22;;;;;;;0.10;0.10;;;;;;;;;;6133886;23;20017;-77
2023/05/17 07:29:07;;;;;;;0.10;0.10;;;;;;;;;;6110596;23;20063;-77
2023/05/17 07:31:53;;;;;;;0.10;0.10;;;;;;;;;;6131703;23;20052;-77
2023/05/17 07:34:39;;;;;;;0.20;0.20;;;;;;;;;;6132718;23;20048;-77
2023/05/17 07:37:28;;;;;;;0.10;0.10;;;;;;;;;;6134076;23;20064;-77
2023/05/17 07:40:13;;;;;;;0.10;0.10;;;;;;;;;;6110302;23;20025;-77
2023/05/17 07:42:59;;;;;;;0.10;0.10;;;;;;;;;;6111928;23;20533;-76
2023/05/17 07:45:46;;;;;;;0.10;0.10;;;;;;;;;;6133946;23;20021;-76
2023/05/17 07:48:31;;;;;;;0.10;0.10;;;;;;;;;;6133560;23;20346;-77
2023/05/17 07:51:17;;;;;;;0.10;0.10;;;;;;;;;;6133334;23;20096;-76
2023/05/17 07:54:03;;;;;;;0.10;0.10;;;;;;;;;;6132774;23;20017;-76
2023/05/17 07:56:49;;;;;;;0.10;0.10;;;;;;;;;;6134371;23;20045;-77
2023/05/17 07:59:34;;;;;;;0.10;0.10;;;;;;;;;;6132669;23;20061;-77
2023/05/17 08:02:20;;;;;;;0.20;0.20;;;;;;;;;;6111496;23;20552;-77
2023/05/17 08:05:07;;;;;;;0.10;0.10;;;;;;;;;;6111776;23;20092;-76
2023/05/17 08:07:53;;;;;;;0.10;0.10;;;;;;;;;;6112754;23;20018;-77
2023/05/17 08:10:39;;;;;;;0.10;0.10;;;;;;;;;;6134264;23;20025;-77
2023/05/17 08:13:25;;;;;;;0.10;0.10;;;;;;;;;;6132140;23;20017;-77
2023/05/17 08:16:11;;;;;;;0.10;0.10;;;;;;;;;;6133327;23;20052;-77
2023/05/17 08:18:57;;;;;;;0.20;0.20;;;;;;;;;;6132905;23;20017;-77
2023/05/17 08:21:43;;;;;;;0.20;0.20;;;;;;;;;;6131858;23;20021;-77
2023/05/17 08:24:28;;;;;;;0.10;0.10;;;;;;;;;;6133408;23;20036;-77
2023/05/17 08:27:15;;;;;;;0.15;0.15;;;;;;;;;;6133005;23;20048;-76
2023/05/17 08:30:01;;;;;;;0.10;0.10;;;;;;;;;;6134196;23;20029;-77
2023/05/17 08:32:47;;;;;;;0.10;0.10;;;;;;;;;;6194408;23;20298;-77
2023/05/17 08:35:32;;;;;;;0.10;0.10;;;;;;;;;;6193479;23;20021;-77
2023/05/17 08:38:18;;;;;;;0.10;0.10;;;;;;;;;;6169619;23;20020;-76
2023/05/17 08:41:04;;;;;;;0.10;0.10;;;;;;;;;;6170059;23;20024;-77
2023/05/17 08:43:50;;;;;;;0.13;0.13;;;;;;;;;;6192947;23;20047;-77
2023/05/17 08:46:37;;;;;;;0.10;0.10;;;;;;;;;;6195654;23;20373;-77
2023/05/17 08:49:24;;;;;;;0.17;0.17;;;;;;;;;;6193646;23;20028;-77
2023/05/17 08:52:10;;;;;;;0.10;0.10;;;;;;;;;;6193829;23;20019;-77
2023/05/17 08:54:57;;;;;;;0.20;0.20;;;;;;;;;;6193931;23;20071;-77
2023/05/17 08:57:43;;;;;;;0.10;0.10;;;;;;;;;;6193197;23;20295;-77
2023/05/17 09:00:31;;;;;;;0.13;0.13;;;;;;;;;;6180328;23;20024;-77
2023/05/17 09:03:17;;;;;;;0.10;0.10;;;;;;;;;;6193870;23;20017;-77
2023/05/17 09:06:03;;;;;;;0.10;0.10;;;;;;;;;;6193573;23;20043;-77
2023/05/17 09:08:51;;;;;;;0.10;0.10;;;;;;;;;;6171632;23;20027;-77
2023/05/17 09:11:37;;;;;;;0.10;0.10;;;;;;;;;;6193093;23;20035;-77
2023/05/17 09:14:23;;;;;;;0.20;0.20;;;;;;;;;;6194485;23;20023;-77
2023/05/17 09:17:12;;;;;;;0.20;0.20;;;;;;;;;;6192765;23;20013;-77
2023/05/17 09:19:59;;;;;;;0.17;0.17;;;;;;;;;;6192942;23;20348;-77
2023/05/17 09:22:47;;;;;;;0.10;0.10;;;;;;;;;;6193516;23;20020;-77
2023/05/17 09:25:33;;;;;;;0.10;0.10;;;;;;;;;;6195476;23;20282;-77
2023/05/17 09:28:19;;;;;;;0.10;0.10;;;;;;;;;;6193477;23;20099;-77
2023/05/17 09:31:08;;;;;;;0.10;0.10;;;;;;;;;;6194070;23;20028;-77
2023/05/17 09:33:57;;;;;;;0.10;0.10;;;;;;;;;;6171221;23;20095;-77
2023/05/17 09:36:43;;;;;;;0.10;0.10;;;;;;;;;;6171439;23;20017;-77
2023/05/17 09:39:30;;;;;;;0.10;0.10;;;;;;;;;;6191893;23;20445;-77
2023/05/17 09:42:16;;;;;;;0.10;0.10;;;;;;;;;;6170245;23;20386;-77
2023/05/17 09:45:02;;;;;;;0.20;0.20;;;;;;;;;;6191821;23;20389;-77
2023/05/17 09:47:48;;;;;;;0.10;0.10;;;;;;;;;;6192583;23;20088;-77
2023/05/17 09:50:33;;;;;;;0.20;0.20;;;;;;;;;;6193275;23;20012;-76
2023/05/17 09:53:32;;;;;;;0.10;0.10;;;;;;;;;;6169371;23;20132;-77
2023/05/17 09:56:20;;;;;;;0.10;0.10;;;;;;;;;;6192846;23;20031;-77
2023/05/17 09:59:10;;;;;;;0.10;0.10;;;;;;;;;;6195688;23;20040;-77
2023/05/17 10:01:58;;;;;;;0.10;0.10;;;;;;;;;;6171281;23;20021;-77
2023/05/17 10:04:45;;;;;;;0.20;0.20;;;;;;;;;;6191072;23;20019;-77
2023/05/17 10:07:33;;;;;;;0.10;0.10;;;;;;;;;;6193095;23;20100;-77
2023/05/17 10:10:19;;;;;;;0.10;0.10;;;;;;;;;;6195384;23;20110;-77
2023/05/17 10:13:06;;;;;;;0.10;0.10;;;;;;;;;;6189625;23;20531;-77
2023/05/17 10:15:52;;;;;;;0.10;0.10;;;;;;;;;;6193891;23;20012;-77
2023/05/17 10:18:39;;;;;;;0.20;0.20;;;;;;;;;;6193083;23;20067;-77
2023/05/17 10:21:25;;;;;;;0.10;0.10;;;;;;;;;;6194618;23;20612;-77
2023/05/17 10:24:10;;;;;;;0.10;0.10;;;;;;;;;;6196463;23;20616;-77
2023/05/17 10:26:56;;;;;;;0.20;0.20;;;;;;;;;;6170771;23;20013;-77
2023/05/17 10:29:43;;;;;;;0.13;0.13;;;;;;;;;;6169595;23;20489;-77
2023/05/17 10:32:29;;;;;;;0.10;0.10;;;;;;;;;;6193849;23;20012;-77
2023/05/17 10:35:15;;;;;;;0.15;0.15;;;;;;;;;;6194801;23;20047;-77
2023/05/17 10:38:01;;;;;;;0.10;0.10;;;;;;;;;;6193146;23;20024;-77
2023/05/17 10:40:47;;;;;;;0.20;0.20;;;;;;;;;;6170650;23;20031;-77
2023/05/17 10:43:33;;;;;;;0.20;0.20;;;;;;;;;;6194136;23;20013;-77
2023/05/17 10:46:20;;;;;;;0.10;0.10;;;;;;;;;;6194735;23;20020;-77
2023/05/17 10:49:05;;;;;;;0.17;0.17;;;;;;;;;;6171489;23;20452;-77
2023/05/17 10:51:51;;;;;;;0.10;0.10;;;;;;;;;;6191407;23;20721;-77
2023/05/17 10:54:41;;;;;;;0.20;0.20;;;;;;;;;;6193809;23;20100;-77
2023/05/17 10:57:37;;;;;;;0.10;0.10;;;;;;;;;;6169601;23;20056;-77
2023/05/17 11:00:27;;;;;;;0.20;0.20;;;;;;;;;;6169667;23;20056;-77
2023/05/17 11:03:21;;;;;;;0.20;0.20;;;;;;;;;;6192554;23;20375;-76
2023/05/17 11:06:10;;;;;;;0.20;0.20;;;;;;;;;;6193505;23;20480;-77
2023/05/17 11:09:06;;;;;;;0.10;0.10;;;;;;;;;;6193385;23;20063;-77
2023/05/17 11:12:02;;;;;;;0.28;0.28;;;;;;;;;;6169233;23;20091;-77
2023/05/17 11:14:52;;;;;;;0.10;0.10;;;;;;;;;;6194607;23;20017;-76
2023/05/17 11:17:53;;;;;;;0.20;0.20;;;;;;;;;;6191226;23;20039;-77
2023/05/17 11:20:38;;;;;;;0.20;0.20;;;;;;;;;;6192351;23;20027;-77
2023/05/17 11:23:28;;;;;;;0.20;0.20;;;;;;;;;;6191713;23;20261;-77
2023/05/17 11:26:33;;;;;;;0.10;0.10;;;;;;;;;;6194005;23;20016;-77
2023/05/17 11:29:19;;;;;;;0.20;0.20;;;;;;;;;;6191602;23;20458;-77
2023/05/17 11:32:06;;;;;;;0.13;0.13;;;;;;;;;;6194104;23;20017;-77
2023/05/17 11:34:52;;;;;;;0.20;0.20;;;;;;;;;;6191200;23;20012;-77
2023/05/17 11:37:42;;;;;;;0.20;0.20;;;;;;;;;;6192464;23;20371;-77
2023/05/17 11:40:28;;;;;;;0.22;0.22;;;;;;;;;;6194486;23;20016;-77
2023/05/17 11:43:17;;;;;;;0.20;0.20;;;;;;;;;;6171068;23;20008;-78
2023/05/17 11:46:05;;;;;;;0.20;0.20;;;;;;;;;;6192449;23;20044;-77
2023/05/17 11:48:51;;;;;;;0.20;0.20;;;;;;;;;;6190729;23;20341;-77
2023/05/17 11:51:37;;;;;;;0.20;0.20;;;;;;;;;;6192106;23;20087;-78
2023/05/17 11:54:24;;;;;;;0.20;0.20;;;;;;;;;;6193287;23;20017;-78
2023/05/17 11:57:11;;;;;;;0.30;0.30;;;;;;;;;;6193474;23;20026;-77
2023/05/17 12:00:01;;;;;;;0.20;0.20;;;;;;;;;;6192958;23;20407;-77
2023/05/17 12:02:47;;;;;;;0.20;0.20;;;;;;;;;;6192105;23;20024;-77
2023/05/17 12:05:33;;;;;;;0.17;0.17;;;;;;;;;;6170498;23;20478;-77
2023/05/17 12:08:20;;;;;;;0.20;0.20;;;;;;;;;;6193697;23;20710;-77
2023/05/17 12:11:06;;;;;;;0.20;0.20;;;;;;;;;;6192026;23;20021;-77
2023/05/17 12:13:52;;;;;;;0.20;0.20;;;;;;;;;;6192460;23;20016;-77
2023/05/17 12:16:41;;;;;;;0.20;0.20;;;;;;;;;;6193362;23;20009;-78
2023/05/17 12:19:28;;;;;;;0.20;0.20;;;;;;;;;;6194324;23;20017;-78
2023/05/17 12:22:14;;;;;;;0.20;0.20;;;;;;;;;;6173088;23;20306;-78
2023/05/17 12:25:00;;;;;;;0.10;0.10;;;;;;;;;;6195887;23;20453;-78
2023/05/17 12:27:45;;;;;;;0.20;0.20;;;;;;;;;;6172449;23;20588;-78
2023/05/17 12:30:31;;;;;;;0.10;0.10;;;;;;;;;;6196164;23;20047;-79
2023/05/17 12:33:17;;;;;;;0.13;0.13;;;;;;;;;;6193165;23;20008;-78
2023/05/17 12:36:03;;;;;;;0.10;0.10;;;;;;;;;;6194814;23;20008;-79
2023/05/17 12:38:49;;;;;;;0.10;0.10;;;;;;;;;;6195005;23;20024;-78
2023/05/17 12:41:35;;;;;;;0.10;0.10;;;;;;;;;;6195712;23;20013;-79
2023/05/17 12:44:20;;;;;;;0.20;0.20;;;;;;;;;;6195897;23;20607;-79
2023/05/17 12:47:08;;;;;;;0.10;0.10;;;;;;;;;;6195639;23;20103;-79
2023/05/17 12:49:54;;;;;;;0.20;0.20;;;;;;;;;;6194086;23;20083;-79
2023/05/17 12:52:39;;;;;;;0.10;0.10;;;;;;;;;;6196521;23;20050;-79
2023/05/17 12:55:25;;;;;;;0.20;0.20;;;;;;;;;;6193898;23;20325;-79
2023/05/17 12:58:11;;;;;;;0.20;0.20;;;;;;;;;;6193856;23;20027;-79
2023/05/17 13:00:57;;;;;;;0.17;0.17;;;;;;;;;;6193084;23;20013;-79
2023/05/17 13:03:48;;;;;;;0.10;0.10;;;;;;;;;;6171988;23;20396;-79
2023/05/17 13:06:48;;;;;;;0.20;0.20;;;;;;;;;;6171061;23;20127;-78
2023/05/17 13:09:44;;;;;;;0.20;0.20;;;;;;;;;;6171801;23;20334;-80
2023/05/17 13:12:30;;;;;;;0.20;0.20;;;;;;;;;;6174399;23;20088;-79
2023/05/17 13:15:16;;;;;;;0.10;0.10;;;;;;;;;;6151665;23;20017;-79
2023/05/17 13:18:11;;;;;;;0.10;0.10;;;;;;;;;;6193220;23;20016;-78
2023/05/17 13:20:57;;;;;;;0.10;0.10;;;;;;;;;;6196002;23;20016;-79
2023/05/17 13:23:43;;;;;;;0.10;0.10;;;;;;;;;;6193745;23;20151;-79
2023/05/17 13:26:29;;;;;;;0.20;0.20;;;;;;;;;;6196052;23;20012;-79
2023/05/17 13:29:15;;;;;;;0.10;0.10;;;;;;;;;;6193341;23;20051;-78
2023/05/17 13:32:00;;;;;;;0.10;0.10;;;;;;;;;;6192169;23;20067;-78
2023/05/17 13:34:46;;;;;;;0.10;0.10;;;;;;;;;;6194322;23;20027;-79
2023/05/17 13:37:32;;;;;;;0.20;0.20;;;;;;;;;;6194672;23;20017;-79
2023/05/17 13:40:18;;;;;;;0.22;0.20;;;;;;;;;;6193180;23;20151;-79
2023/05/17 13:43:03;;;;;;;0.17;0.17;;;;;;;;;;6194578;23;20095;-79
2023/05/17 13:45:53;;;;;;;0.13;0.13;;;;;;;;;;6195500;23;20017;-78
2023/05/17 13:48:39;;;;;;;0.10;0.10;;;;;;;;;;6192309;23;20020;-79
2023/05/17 13:51:25;;;;;;;0.10;0.10;;;;;;;;;;6193350;23;20040;-78
2023/05/17 13:54:11;;;;;;;0.10;0.10;;;;;;;;;;6192503;23;20024;-79
2023/05/17 13:56:57;;;;;;;0.10;0.10;;;;;;;;;;6192815;23;20520;-79
2023/05/17 13:59:43;;;;;;;0.10;0.10;;;;;;;;;;6192495;23;20031;-79
2023/05/17 14:02:28;;;;;;;0.10;0.10;;;;;;;;;;6194281;23;20013;-79
2023/05/17 14:05:14;;;;;;;0.10;0.10;;;;;;;;;;6193406;23;20013;-79
2023/05/17 14:08:00;;;;;;;0.10;0.10;;;;;;;;;;6191565;23;20021;-78
2023/05/17 14:10:45;;;;;;;0.10;0.10;;;;;;;;;;6193533;23;20013;-78
2023/05/17 14:13:31;;;;;;;0.10;0.10;;;;;;;;;;6192847;23;20004;-79
2023/05/17 14:16:17;;;;;;;0.10;0.10;;;;;;;;;;6193353;23;20292;-79
2023/05/17 14:19:03;;;;;;;0.10;0.10;;;;;;;;;;6195266;23;20020;-79
2023/05/17 14:21:49;;;;;;;0.00;0.00;;;;;;;;;;6193006;23;20603;-79
2023/05/17 14:24:34;;;;;;;0.10;0.10;;;;;;;;;;6193385;23;20040;-77
2023/05/17 14:27:20;;;;;;;0.10;0.05;;;;;;;;;;6191837;23;20021;-78
2023/05/17 14:30:06;;;;;;;0.20;0.20;;;;;;;;;;6192206;23;20032;-78
2023/05/17 14:32:52;;;;;;;0.13;0.13;;;;;;;;;;6193091;23;20017;-79
2023/05/17 14:35:38;;;;;;;0.10;0.10;;;;;;;;;;6193659;23;20393;-78
2023/05/17 14:38:23;;;;;;;0.10;0.10;;;;;;;;;;6193233;23;20021;-78
2023/05/17 14:41:09;;;;;;;0.10;0.10;;;;;;;;;;6195998;23;20016;-79
2023/05/17 14:43:55;;;;;;;0.10;0.10;;;;;;;;;;6192984;23;20499;-79
2023/05/17 14:46:40;;;;;;;0.10;0.10;;;;;;;;;;6193892;23;20020;-78
2023/05/17 14:49:26;;;;;;;0.20;0.20;;;;;;;;;;6192248;23;20365;-78
2023/05/17 14:52:12;;;;;;;0.20;0.20;;;;;;;;;;6193612;23;20289;-78
2023/05/17 14:54:58;;;;;;;0.10;0.10;;;;;;;;;;6194670;23;20012;-78
2023/05/17 14:57:44;;;;;;;0.20;0.20;;;;;;;;;;6192430;23;20036;-78
2023/05/17 15:00:30;;;;;;;0.10;0.10;;;;;;;;;;6191579;23;20358;-78
2023/05/17 15:03:17;;;;;;;0.10;0.10;;;;;;;;;;6192500;23;20265;-79
2023/05/17 15:06:03;;;;;;;0.10;0.10;;;;;;;;;;6192258;23;20020;-79
2023/05/17 15:08:48;;;;;;;0.10;0.10;;;;;;;;;;6193019;23;20024;-79
2023/05/17 15:11:34;;;;;;;0.10;0.10;;;;;;;;;;6192189;23;20074;-79
2023/05/17 15:14:23;;;;;;;0.15;0.15;;;;;;;;;;6170872;23;20016;-78
2023/05/17 15:17:09;;;;;;;0.10;0.10;;;;;;;;;;6192936;23;20040;-79
2023/05/17 15:19:55;;;;;;;0.10;0.10;;;;;;;;;;6195091;23;20087;-79
2023/05/17 15:22:41;;;;;;;0.20;0.20;;;;;;;;;;6171889;23;20111;-79
2023/05/17 15:25:26;;;;;;;0.10;0.10;;;;;;;;;;6192591;23;20016;-79
2023/05/17 15:28:12;;;;;;;0.10;0.10;;;;;;;;;;6193720;23;20401;-78
2023/05/17 15:31:02;;;;;;;0.10;0.10;;;;;;;;;;6172789;23;20304;-78
2023/05/17 15:33:48;;;;;;;0.10;0.10;;;;;;;;;;6192051;23;20013;-78
2023/05/17 15:36:33;;;;;;;0.10;0.10;;;;;;;;;;6191265;23;20024;-78
2023/05/17 15:39:19;;;;;;;0.10;0.10;;;;;;;;;;6191114;23;20108;-78
2023/05/17 15:42:05;;;;;;;0.10;0.10;;;;;;;;;;6194719;23;20539;-78
2023/05/17 15:44:50;;;;;;;0.10;0.10;;;;;;;;;;6192154;23;20393;-78
2023/05/17 15:47:36;;;;;;;0.10;0.10;;;;;;;;;;6191760;23;20016;-78
2023/05/17 15:50:22;;;;;;;0.10;0.10;;;;;;;;;;6170047;23;20017;-78
2023/05/17 15:53:07;;;;;;;0.10;0.10;;;;;;;;;;6193893;23;20499;-78
2023/05/17 15:55:53;;;;;;;0.10;0.10;;;;;;;;;;6192452;23;20024;-78
2023/05/17 15:58:39;;;;;;;0.10;0.10;;;;;;;;;;6190511;23;20050;-78
2023/05/17 16:01:25;;;;;;;0.10;0.10;;;;;;;;;;6171405;23;20044;-77
2023/05/17 16:04:11;;;;;;;0.10;0.10;;;;;;;;;;6192670;23;20281;-78
2023/05/17 16:06:56;;;;;;;0.10;0.10;;;;;;;;;;6192757;23;20357;-78
2023/05/17 16:09:42;;;;;;;0.10;0.10;;;;;;;;;;6168318;23;20062;-78
2023/05/17 16:12:28;;;;;;;0.10;0.10;;;;;;;;;;6192657;23;20016;-78
2023/05/17 16:15:13;;;;;;;0.10;0.10;;;;;;;;;;6192038;23;20079;-77
2023/05/17 16:17:59;;;;;;;0.10;0.10;;;;;;;;;;6194094;23;20384;-77
2023/05/17 16:20:45;;;;;;;0.10;0.10;;;;;;;;;;6191637;23;20317;-78
2023/05/17 16:23:31;;;;;;;0.10;0.10;;;;;;;;;;6193565;23;20017;-77
2023/05/17 16:26:17;;;;;;;0.10;0.10;;;;;;;;;;6192747;23;20012;-77
2023/05/17 16:29:03;;;;;;;0.13;0.13;;;;;;;;;;6194061;23;20211;-77
2023/05/17 16:31:50;;;;;;;0.10;0.10;;;;;;;;;;6194271;23;20027;-77
2023/05/17 16:34:35;;;;;;;0.10;0.10;;;;;;;;;;6192503;23;20262;-77
2023/05/17 16:37:21;;;;;;;0.10;0.10;;;;;;;;;;6173081;23;20095;-77
2023/05/17 16:40:08;;;;;;;0.10;0.10;;;;;;;;;;6191632;23;20378;-77
2023/05/17 16:42:53;;;;;;;0.10;0.10;;;;;;;;;;6192278;23;20016;-77
2023/05/17 16:45:39;;;;;;;0.15;0.15;;;;;;;;;;6192092;23;20013;-78
2023/05/17 16:48:25;;;;;;;0.10;0.10;;;;;;;;;;6191004;23;20222;-77
2023/05/17 16:51:11;;;;;;;0.10;0.10;;;;;;;;;;6194481;23;20034;-77
2023/05/17 16:53:57;;;;;;;0.10;0.10;;;;;;;;;;6191227;23;20019;-78
2023/05/17 16:56:43;;;;;;;0.20;0.20;;;;;;;;;;6193699;23;20717;-78
2023/05/17 16:59:29;;;;;;;0.10;0.10;;;;;;;;;;6192690;23;20016;-78
2023/05/17 17:02:15;;;;;;;0.00;0.00;;;;;;;;;;6191749;23;20449;-77
2023/05/17 17:05:03;;;;;;;0.10;0.10;;;;;;;;;;6192234;23;20017;-78
2023/05/17 17:07:48;;;;;;;0.13;0.13;;;;;;;;;;6171796;23;20729;-78
2023/05/17 17:10:35;;;;;;;0.10;0.10;;;;;;;;;;6172527;23;20400;-77
2023/05/17 17:13:20;;;;;;;0.00;0.00;;;;;;;;;;6192987;23;20103;-78
2023/05/17 17:16:06;;;;;;;0.03;0.03;;;;;;;;;;6194996;23;20013;-77
2023/05/17 17:18:52;;;;;;;0.10;0.10;;;;;;;;;;6191904;23;20012;-77
2023/05/17 17:21:38;;;;;;;0.10;0.10;;;;;;;;;;6189542;23;20008;-77
2023/05/17 17:24:23;;;;;;;0.10;0.10;;;;;;;;;;6171244;23;20013;-77
2023/05/17 17:27:09;;;;;;;0.00;0.00;;;;;;;;;;6195421;23;20012;-77
2023/05/17 17:29:55;;;;;;;0.10;0.10;;;;;;;;;;6192233;23;20012;-77
2023/05/17 17:32:41;;;;;;;0.10;0.10;;;;;;;;;;6170654;23;20012;-77
2023/05/17 17:35:26;;;;;;;0.10;0.10;;;;;;;;;;6194420;23;20475;-77
2023/05/17 17:38:13;;;;;;;0.10;0.10;;;;;;;;;;6193769;23;20024;-77